createdAt,value
2023-02-09T00:03:10.526Z,6.67
2023-02-09T00:07:22.125Z,6.90
2023-02-09T00:11:52.215Z,5.20
2023-02-09T00:16:04.696Z,5.53
2023-02-09T00:20:16.425Z,8.00
2023-02-09T00:24:28.085Z,6.30
2023-02-09T00:28:39.720Z,7.93
2023-02-09T00:32:51.368Z,6.10
2023-02-09T00:37:02.930Z,6.23
2023-02-09T00:41:16.271Z,7.33
2023-02-09T00:45:27.982Z,5.80
2023-02-09T00:49:40.160Z,6.63
2023-02-09T00:53:51.831Z,5.80
2023-02-09T00:58:03.698Z,8.70
2023-02-09T01:02:15.293Z,4.83
2023-02-09T01:06:26.993Z,6.20
2023-02-09T01:10:39.155Z,7.50
2023-02-09T01:14:50.758Z,6.97
2023-02-09T01:19:04.060Z,6.60
2023-02-09T01:23:15.618Z,5.87
2023-02-09T01:27:27.537Z,9.90
2023-02-09T01:31:39.255Z,5.80
2023-02-09T01:35:50.985Z,6.33
2023-02-09T01:40:04.122Z,6.40
2023-02-09T01:44:15.575Z,8.17
2023-02-09T01:48:30.381Z,5.87
2023-02-09T01:52:43.637Z,9.93
2023-02-09T01:56:59.931Z,7.33
2023-02-09T02:01:12.324Z,7.30
2023-02-09T02:05:26.964Z,7.83
2023-02-09T02:09:38.562Z,5.67
2023-02-09T02:13:50.604Z,6.27
2023-02-09T02:18:24.022Z,6.43
2023-02-09T02:23:00.846Z,7.37
2023-02-09T02:27:30.337Z,7.20
2023-02-09T02:32:10.289Z,6.73
2023-02-09T02:36:43.140Z,8.03
2023-02-09T02:41:04.618Z,6.60
2023-02-09T02:45:26.841Z,7.67
2023-02-09T02:49:44.439Z,6.70
2023-02-09T02:54:04.587Z,6.17
2023-02-09T02:58:20.861Z,6.07
2023-02-09T03:02:38.221Z,6.30
2023-02-09T03:06:49.726Z,6.93
2023-02-09T03:11:01.268Z,8.17
2023-02-09T03:15:36.370Z,7.33
2023-02-09T03:19:52.968Z,6.53
2023-02-09T03:24:46.412Z,6.33
2023-02-09T03:29:00.320Z,6.23
2023-02-09T03:33:24.021Z,7.20
2023-02-09T03:37:35.624Z,5.60
2023-02-09T03:41:47.155Z,8.30
2023-02-09T03:45:58.675Z,5.87
2023-02-09T03:50:10.350Z,7.00
2023-02-09T03:54:21.948Z,5.47
2023-02-09T03:58:36.077Z,5.90
2023-02-09T04:02:47.758Z,6.60
2023-02-09T04:07:00.038Z,6.77
2023-02-09T04:11:11.647Z,6.03
2023-02-09T04:15:23.187Z,6.03
2023-02-09T04:19:34.804Z,8.17
2023-02-09T04:23:46.346Z,7.00
2023-02-09T04:27:58.004Z,6.27
2023-02-09T04:32:10.347Z,6.47
2023-02-09T04:36:23.414Z,7.90
2023-02-09T04:40:35.056Z,7.80
2023-02-09T04:44:46.665Z,6.87
2023-02-09T04:48:58.275Z,5.87
2023-02-09T04:53:10.415Z,6.33
2023-02-09T04:57:40.622Z,6.43
2023-02-09T05:01:52.203Z,8.03
2023-02-09T05:06:05.429Z,7.27
2023-02-09T05:10:17.486Z,6.80
2023-02-09T05:14:29.067Z,7.17
2023-02-09T05:18:40.650Z,7.60
2023-02-09T05:22:52.257Z,6.77
2023-02-09T05:27:03.977Z,7.60
2023-02-09T05:31:16.660Z,6.43
2023-02-09T05:35:28.596Z,6.47
2023-02-09T05:39:40.166Z,6.77
2023-02-09T05:43:51.744Z,8.27
2023-02-09T05:48:03.487Z,6.80
2023-02-09T05:52:16.676Z,6.97
2023-02-09T05:56:28.658Z,8.30
2023-02-09T06:00:40.201Z,8.30
2023-02-09T06:04:51.775Z,6.27
2023-02-09T06:09:03.993Z,7.00
2023-02-09T06:13:16.180Z,7.43
2023-02-09T06:17:27.760Z,8.30
2023-02-09T06:21:39.336Z,7.10
2023-02-09T06:25:53.749Z,9.40
2023-02-09T06:30:06.000Z,7.93
2023-02-09T06:34:17.618Z,8.07
2023-02-09T06:38:33.663Z,8.53
2023-02-09T06:42:45.308Z,8.73
2023-02-09T06:46:56.938Z,5.80
2023-02-09T06:51:10.638Z,6.57
2023-02-09T06:55:22.332Z,7.17
2023-02-09T06:59:33.921Z,7.40
2023-02-09T07:03:45.706Z,7.50
2023-02-09T07:07:57.413Z,6.83
2023-02-09T07:12:08.992Z,8.83
2023-02-09T07:16:20.624Z,7.60
2023-02-09T07:20:32.251Z,7.93
2023-02-09T07:24:43.872Z,7.23
2023-02-09T07:28:55.421Z,7.10
2023-02-09T07:33:07.121Z,8.13
2023-02-09T07:37:18.770Z,8.60
2023-02-09T07:41:30.586Z,10.20
2023-02-09T07:45:42.338Z,9.53
2023-02-09T07:49:53.909Z,9.27
2023-02-09T07:54:07.396Z,8.73
2023-02-09T07:58:22.739Z,7.33
2023-02-09T08:02:36.738Z,9.23
2023-02-09T08:06:48.461Z,10.93
2023-02-09T08:11:01.367Z,6.37
2023-02-09T08:15:16.482Z,8.13
2023-02-09T08:19:29.346Z,8.67
2023-02-09T08:23:43.799Z,10.07
2023-02-09T08:27:56.309Z,10.90
2023-02-09T08:32:08.002Z,8.87
2023-02-09T08:36:20.588Z,11.23
2023-02-09T08:40:35.378Z,8.47
2023-02-09T08:44:47.871Z,7.73
2023-02-09T08:48:59.433Z,9.03
2023-02-09T08:53:11.054Z,9.63
2023-02-09T08:57:25.632Z,9.17
2023-02-09T09:01:43.583Z,8.47
2023-02-09T09:06:03.376Z,9.57
2023-02-09T09:10:15.267Z,18.73
2023-02-09T09:14:27.035Z,8.47
2023-02-09T09:18:38.669Z,9.20
2023-02-09T09:22:50.212Z,7.70
2023-02-09T09:27:01.808Z,9.23
2023-02-09T09:31:16.483Z,14.53
2023-02-09T09:35:28.152Z,9.83
2023-02-09T09:39:39.761Z,11.23
2023-02-09T09:43:52.597Z,7.97
2023-02-09T09:48:06.116Z,8.67
2023-02-09T09:52:33.351Z,8.17
2023-02-09T09:56:45.166Z,11.40
2023-02-09T10:00:57.325Z,8.40
2023-02-09T10:05:20.135Z,11.37
2023-02-09T10:09:42.291Z,9.03
2023-02-09T10:13:56.167Z,8.30
2023-02-09T10:18:17.113Z,9.70
2023-02-09T10:22:28.819Z,9.43
2023-02-09T10:26:42.875Z,8.97
2023-02-09T10:30:57.220Z,7.60
2023-02-09T10:35:35.145Z,11.13
2023-02-09T10:40:06.514Z,11.03
2023-02-09T10:44:22.492Z,9.53
2023-02-09T10:48:41.821Z,9.43
2023-02-09T10:52:55.494Z,10.00
2023-02-09T10:57:25.699Z,8.50
2023-02-09T11:01:43.324Z,8.03
2023-02-09T11:06:19.558Z,9.33
2023-02-09T11:10:37.897Z,10.50
2023-02-09T11:14:49.723Z,14.63
2023-02-09T11:19:07.941Z,17.03
2023-02-09T11:23:50.923Z,17.80
2023-02-09T11:28:27.308Z,17.00
2023-02-09T11:33:11.406Z,20.00
2023-02-09T11:37:29.088Z,13.03
2023-02-09T11:42:04.391Z,12.33
2023-02-09T11:46:22.197Z,13.23
2023-02-09T11:51:02.114Z,9.77
2023-02-09T11:55:27.672Z,10.03
2023-02-09T11:59:47.963Z,11.23
2023-02-09T12:04:24.803Z,11.70
2023-02-09T12:08:56.014Z,10.53
2023-02-09T12:13:22.227Z,13.47
2023-02-09T12:17:41.287Z,10.43
2023-02-09T12:21:52.970Z,10.13
2023-02-09T12:26:16.717Z,11.40
2023-02-09T12:30:40.627Z,10.80
2023-02-09T12:34:55.090Z,12.17
2023-02-09T12:39:26.412Z,15.27
2023-02-09T12:43:38.930Z,15.30
2023-02-09T12:48:11.393Z,11.60
2023-02-09T12:52:22.990Z,12.80
2023-02-09T12:56:34.628Z,13.90
2023-02-09T13:00:54.230Z,13.53
2023-02-09T13:05:33.109Z,12.77
2023-02-09T13:09:47.144Z,12.93
2023-02-09T13:14:04.144Z,12.73
2023-02-09T13:18:51.574Z,11.63
2023-02-09T13:23:51.176Z,19.93
2023-02-09T13:28:15.068Z,14.63
2023-02-09T13:33:02.735Z,13.27
2023-02-09T13:37:40.791Z,13.67
2023-02-09T13:41:54.400Z,14.90
2023-02-09T13:46:06.529Z,13.40
2023-02-09T13:50:21.530Z,15.83
2023-02-09T13:54:33.104Z,15.80
2023-02-09T13:58:47.188Z,16.37
2023-02-09T14:03:02.355Z,13.73
2023-02-09T14:07:14.703Z,12.07
2023-02-09T14:11:44.793Z,15.73
2023-02-09T14:16:08.464Z,13.00
2023-02-09T14:20:23.323Z,14.43
2023-02-09T14:24:43.787Z,13.43
2023-02-09T14:29:28.221Z,13.50
2023-02-09T14:33:39.792Z,16.07
2023-02-09T14:37:54.173Z,16.50
2023-02-09T14:42:08.633Z,14.13
2023-02-09T14:46:20.255Z,14.83
2023-02-09T14:50:32.120Z,15.50
2023-02-09T14:54:48.677Z,16.90
2023-02-09T14:59:00.214Z,15.27
2023-02-09T15:03:11.891Z,14.93
2023-02-09T15:07:33.844Z,13.93
2023-02-09T15:12:03.946Z,14.17
2023-02-09T15:16:16.798Z,12.97
2023-02-09T15:20:31.260Z,14.40
2023-02-09T15:24:48.409Z,15.50
2023-02-09T15:29:00.555Z,14.90
2023-02-09T15:33:12.439Z,14.03
2023-02-09T15:37:33.614Z,14.43
2023-02-09T15:42:03.800Z,14.17
2023-02-09T15:46:35.700Z,15.83
2023-02-09T15:50:48.365Z,15.87
2023-02-09T15:55:00.352Z,13.83
2023-02-09T15:59:18.848Z,15.43
2023-02-09T16:03:31.817Z,16.30
2023-02-09T16:07:43.747Z,17.37
2023-02-09T16:11:55.730Z,16.90
2023-02-09T16:16:16.677Z,18.40
2023-02-09T16:20:29.300Z,20.53
2023-02-09T16:24:45.792Z,27.37
2023-02-09T16:28:57.545Z,20.63
2023-02-09T16:33:09.196Z,28.00
2023-02-09T16:37:31.704Z,25.87
2023-02-09T16:41:50.750Z,22.37
2023-02-09T16:46:04.813Z,23.20
2023-02-09T16:50:42.033Z,40.30
2023-02-09T16:54:57.357Z,200.27
2023-02-09T16:59:13.118Z,51.70
2023-02-09T17:03:33.530Z,34.37
2023-02-09T17:07:54.580Z,29.83
2023-02-09T17:12:06.858Z,27.13
2023-02-09T17:16:30.537Z,25.40
2023-02-09T17:20:45.416Z,23.03
2023-02-09T17:24:57.063Z,24.23
2023-02-09T17:29:09.397Z,26.40
2023-02-09T17:33:25.478Z,26.07
2023-02-09T17:37:37.375Z,20.53
2023-02-09T17:41:49.990Z,31.00
2023-02-09T17:46:01.738Z,22.00
2023-02-09T17:50:13.397Z,20.30
2023-02-09T17:54:25.328Z,18.67
2023-02-09T17:58:36.910Z,19.33
2023-02-09T18:02:48.623Z,20.37
2023-02-09T18:07:00.304Z,20.33
2023-02-09T18:11:16.050Z,24.30
2023-02-09T18:15:31.178Z,26.30
2023-02-09T18:19:42.836Z,41.23
2023-02-09T18:23:54.378Z,30.47
2023-02-09T18:28:07.314Z,24.80
2023-02-09T18:32:18.965Z,22.43
2023-02-09T18:36:30.771Z,19.63
2023-02-09T18:40:42.553Z,21.60
2023-02-09T18:44:55.356Z,24.87
2023-02-09T18:49:06.999Z,20.30
2023-02-09T18:53:22.153Z,24.77
2023-02-09T18:57:33.739Z,25.33
2023-02-09T19:01:46.470Z,23.77
2023-02-09T19:05:58.216Z,26.13
2023-02-09T19:10:12.151Z,22.20
2023-02-09T19:14:38.977Z,28.53
2023-02-09T19:18:50.539Z,22.17
2023-02-09T19:23:03.889Z,22.77
2023-02-09T19:27:18.615Z,24.43
2023-02-09T19:31:30.701Z,21.37
2023-02-09T19:35:42.403Z,22.53
2023-02-09T19:40:03.963Z,24.57
2023-02-09T19:44:15.676Z,27.17
2023-02-09T19:48:27.244Z,25.40
2023-02-09T19:52:40.758Z,25.17
2023-02-09T19:56:52.415Z,25.30
2023-02-09T20:01:08.627Z,24.13
2023-02-09T20:05:20.245Z,26.97
2023-02-09T20:09:31.887Z,25.27
2023-02-09T20:13:43.545Z,24.30
2023-02-09T20:17:55.188Z,24.43
2023-02-09T20:22:06.777Z,33.03
2023-02-09T20:26:26.588Z,42.17
2023-02-09T20:30:40.733Z,38.50
2023-02-09T20:34:52.371Z,32.40
2023-02-09T20:39:05.513Z,30.80
2023-02-09T20:43:35.889Z,35.63
2023-02-09T20:47:47.608Z,34.63
2023-02-09T20:51:59.170Z,43.73
2023-02-09T20:56:11.075Z,39.07
2023-02-09T21:00:22.874Z,34.97
2023-02-09T21:04:34.482Z,33.73
2023-02-09T21:08:46.028Z,30.97
2023-02-09T21:12:57.571Z,37.20
2023-02-09T21:17:09.230Z,40.53
2023-02-09T21:21:22.325Z,50.77
2023-02-09T21:25:33.961Z,43.00
2023-02-09T21:29:45.690Z,49.30
2023-02-09T21:33:57.210Z,43.93
2023-02-09T21:38:08.786Z,36.07
2023-02-09T21:42:26.273Z,32.83
2023-02-09T21:46:38.484Z,29.43
2023-02-09T21:50:50.112Z,26.97
2023-02-09T21:55:01.865Z,29.50
2023-02-09T21:59:13.469Z,29.83
2023-02-09T22:03:25.257Z,27.53
2023-02-09T22:07:36.904Z,26.57
2023-02-09T22:11:48.644Z,24.30
2023-02-09T22:16:06.152Z,24.87
2023-02-09T22:20:17.788Z,29.43
2023-02-09T22:24:30.271Z,26.77
2023-02-09T22:28:42.685Z,22.90
2023-02-09T22:32:54.233Z,22.87
2023-02-09T22:37:05.847Z,21.73
2023-02-09T22:41:22.097Z,27.00
2023-02-09T22:45:33.697Z,22.47
2023-02-09T22:49:46.752Z,23.07
2023-02-09T22:53:59.792Z,25.67
2023-02-09T22:58:11.404Z,22.67
2023-02-09T23:02:24.266Z,24.13
2023-02-09T23:06:35.866Z,24.30
2023-02-09T23:10:47.496Z,28.17
2023-02-09T23:14:59.027Z,32.83
2023-02-09T23:19:19.291Z,30.80
2023-02-09T23:23:30.900Z,27.40
2023-02-09T23:27:43.347Z,33.30
2023-02-09T23:31:54.850Z,30.67
2023-02-09T23:36:13.507Z,30.17
2023-02-09T23:40:25.015Z,35.57
2023-02-09T23:44:36.564Z,34.50
2023-02-09T23:48:49.018Z,37.30
2023-02-09T23:53:00.580Z,39.97
2023-02-09T23:57:12.164Z,47.80
